createdAt,value
2022-09-09T00:02:12.655Z,13.10
2022-09-09T00:07:27.862Z,13.20
2022-09-09T00:12:44.327Z,13.10
2022-09-09T00:18:04.454Z,13.00
2022-09-09T00:23:28.486Z,13.20
2022-09-09T00:28:36.496Z,12.60
2022-09-09T00:33:43.902Z,12.60
2022-09-09T00:38:53.360Z,12.50
2022-09-09T00:44:04.900Z,12.70
2022-09-09T00:49:18.966Z,12.70
2022-09-09T00:54:43.955Z,13.00
2022-09-09T00:59:52.296Z,13.00
2022-09-09T01:05:06.108Z,13.10
2022-09-09T01:10:15.024Z,12.70
2022-09-09T01:15:25.745Z,12.70
2022-09-09T01:20:46.007Z,12.80
2022-09-09T01:26:22.797Z,12.60
2022-09-09T01:31:34.287Z,12.50
2022-09-09T01:36:48.844Z,12.70
2022-09-09T01:41:54.977Z,12.80
2022-09-09T01:47:00.649Z,13.20
2022-09-09T01:52:06.949Z,13.20
2022-09-09T01:57:23.826Z,13.10
2022-09-09T02:02:47.168Z,13.10
2022-09-09T02:07:55.393Z,12.50
2022-09-09T02:13:06.005Z,12.40
2022-09-09T02:18:14.777Z,12.10
2022-09-09T02:23:21.369Z,12.00
2022-09-09T02:28:27.721Z,11.80
2022-09-09T02:33:35.830Z,11.70
2022-09-09T02:38:43.804Z,11.70
2022-09-09T02:43:49.051Z,11.30
2022-09-09T02:49:03.476Z,11.10
2022-09-09T02:54:32.523Z,11.30
2022-09-09T02:59:38.294Z,11.50
2022-09-09T03:04:45.466Z,11.10
2022-09-09T03:09:50.489Z,10.70
2022-09-09T03:14:55.877Z,11.30
2022-09-09T03:20:00.666Z,11.50
2022-09-09T03:25:07.170Z,11.60
2022-09-09T03:30:15.385Z,11.50
2022-09-09T03:35:20.408Z,11.60
2022-09-09T03:40:25.321Z,11.50
2022-09-09T03:45:31.158Z,11.60
2022-09-09T03:50:36.472Z,11.20
2022-09-09T03:55:42.512Z,11.20
2022-09-09T04:00:58.756Z,11.40
2022-09-09T04:06:05.857Z,11.70
2022-09-09T04:11:12.471Z,11.10
2022-09-09T04:16:17.691Z,11.50
2022-09-09T04:21:22.910Z,11.30
2022-09-09T04:26:28.218Z,11.20
2022-09-09T04:31:33.931Z,11.30
2022-09-09T04:36:41.496Z,11.30
2022-09-09T04:41:46.581Z,10.90
2022-09-09T04:46:51.551Z,11.20
2022-09-09T04:51:57.054Z,11.00
2022-09-09T04:57:02.874Z,10.90
2022-09-09T05:02:08.761Z,10.90
2022-09-09T05:07:15.545Z,11.20
2022-09-09T05:12:20.852Z,11.30
2022-09-09T05:17:26.492Z,11.50
2022-09-09T05:22:32.676Z,11.90
2022-09-09T05:27:39.140Z,12.20
2022-09-09T05:32:45.279Z,12.50
2022-09-09T05:37:51.581Z,13.00
2022-09-09T05:42:57.372Z,13.20
2022-09-09T05:48:02.939Z,13.40
2022-09-09T05:53:09.938Z,13.40
2022-09-09T05:58:17.578Z,13.30
2022-09-09T06:03:24.125Z,13.50
2022-09-09T06:08:29.732Z,13.70
2022-09-09T06:13:35.354Z,14.00
2022-09-09T06:18:44.250Z,14.10
2022-09-09T06:23:50.234Z,14.30
2022-09-09T06:28:58.801Z,14.40
2022-09-09T06:34:06.596Z,14.40
2022-09-09T06:39:14.824Z,15.00
2022-09-09T06:44:19.704Z,15.00
2022-09-09T06:49:24.847Z,15.30
2022-09-09T06:54:29.791Z,15.50
2022-09-09T06:59:35.511Z,15.80
2022-09-09T07:04:41.095Z,16.20
2022-09-09T07:09:46.535Z,16.40
2022-09-09T07:14:51.377Z,16.80
2022-09-09T07:19:57.825Z,17.00
2022-09-09T07:25:03.780Z,17.10
2022-09-09T07:30:09.561Z,17.20
2022-09-09T07:35:15.595Z,17.00
2022-09-09T07:40:22.388Z,17.20
2022-09-09T07:45:29.674Z,17.70
2022-09-09T07:50:35.252Z,18.00
2022-09-09T07:55:41.850Z,18.10
2022-09-09T08:00:46.939Z,18.30
2022-09-09T08:05:53.235Z,18.70
2022-09-09T08:11:10.538Z,19.00
2022-09-09T08:16:19.374Z,19.70
2022-09-09T08:21:29.176Z,19.80
2022-09-09T08:26:40.363Z,20.40
2022-09-09T08:31:49.007Z,20.30
2022-09-09T08:36:55.557Z,20.90
2022-09-09T08:42:15.326Z,20.60
2022-09-09T08:47:31.773Z,20.40
2022-09-09T08:52:59.020Z,20.30
2022-09-09T08:58:07.559Z,20.70
2022-09-09T09:03:30.774Z,21.70
2022-09-09T09:08:48.096Z,20.80
2022-09-09T09:14:17.896Z,20.70
2022-09-09T09:19:25.970Z,20.80
2022-09-09T09:24:46.458Z,20.40
2022-09-09T09:30:21.066Z,20.60
2022-09-09T09:35:03.095Z,21.40
2022-09-09T09:40:13.374Z,21.50
2022-09-09T09:45:37.473Z,22.00
2022-09-09T09:50:54.739Z,22.40
2022-09-09T09:56:03.915Z,23.00
2022-09-09T10:01:12.592Z,23.20
2022-09-09T10:06:18.162Z,23.30
2022-09-09T10:11:37.890Z,23.40
2022-09-09T10:17:03.177Z,23.40
2022-09-09T10:22:29.526Z,23.60
2022-09-09T10:27:47.975Z,23.80
2022-09-09T10:33:07.882Z,23.60
2022-09-09T10:38:19.507Z,23.80
2022-09-09T10:43:42.208Z,23.10
2022-09-09T10:48:57.103Z,23.70
2022-09-09T10:54:25.094Z,24.70
2022-09-09T10:59:33.505Z,24.60
2022-09-09T11:04:44.934Z,24.90
2022-09-09T11:09:53.150Z,25.10
2022-09-09T11:15:10.205Z,24.80
2022-09-09T11:20:16.472Z,24.30
2022-09-09T11:25:27.857Z,23.90
2022-09-09T11:30:55.530Z,24.50
2022-09-09T11:36:10.135Z,25.70
2022-09-09T11:41:21.680Z,24.90
2022-09-09T11:46:28.329Z,24.50
2022-09-09T11:51:36.779Z,23.80
2022-09-09T11:56:46.802Z,24.70
2022-09-09T12:02:03.437Z,25.00
2022-09-09T12:07:25.496Z,25.10
2022-09-09T12:12:33.342Z,25.50
2022-09-09T12:17:47.748Z,25.60
2022-09-09T12:23:23.253Z,25.20
2022-09-09T12:28:53.442Z,24.80
2022-09-09T12:34:14.059Z,23.90
2022-09-09T12:39:22.253Z,23.70
2022-09-09T12:44:31.120Z,23.10
2022-09-09T12:49:42.570Z,22.80
2022-09-09T12:54:49.009Z,22.70
2022-09-09T12:59:54.398Z,22.70
2022-09-09T13:05:17.896Z,23.20
2022-09-09T13:10:36.578Z,23.50
2022-09-09T13:15:35.571Z,23.40
2022-09-09T13:20:40.843Z,22.90
2022-09-09T13:25:46.860Z,22.70
2022-09-09T13:31:05.824Z,22.80
2022-09-09T13:36:14.975Z,22.80
2022-09-09T13:41:25.850Z,22.70
2022-09-09T13:46:41.694Z,22.80
2022-09-09T13:51:52.033Z,22.60
2022-09-09T13:56:57.681Z,22.70
2022-09-09T14:02:03.317Z,22.60
2022-09-09T14:07:12.775Z,22.60
2022-09-09T14:12:19.269Z,22.60
2022-09-09T14:17:26.043Z,22.60
2022-09-09T14:22:31.634Z,22.10
2022-09-09T14:27:37.066Z,21.90
2022-09-09T14:32:42.025Z,21.70
2022-09-09T14:37:47.338Z,21.60
2022-09-09T14:42:54.995Z,21.30
2022-09-09T14:48:00.773Z,21.30
2022-09-09T14:53:06.146Z,21.30
2022-09-09T14:58:11.083Z,21.10
2022-09-09T15:03:16.365Z,21.10
2022-09-09T15:08:21.534Z,20.90
2022-09-09T15:13:27.423Z,20.90
2022-09-09T15:18:34.109Z,20.60
2022-09-09T15:23:38.966Z,20.80
2022-09-09T15:28:46.963Z,20.70
2022-09-09T15:33:56.044Z,20.50
2022-09-09T15:39:02.186Z,20.50
2022-09-09T15:44:08.118Z,20.40
2022-09-09T15:49:23.926Z,20.20
2022-09-09T15:54:29.873Z,20.00
2022-09-09T16:33:00.347Z,18.50
2022-09-09T16:38:06.712Z,18.40
2022-09-09T16:43:13.179Z,18.30
2022-09-09T16:48:18.306Z,17.80
2022-09-09T16:53:23.675Z,17.70
2022-09-09T16:58:29.321Z,17.90
2022-09-09T17:03:35.137Z,18.00
2022-09-09T17:08:42.721Z,17.80
2022-09-09T17:13:50.041Z,17.60
2022-09-09T17:18:57.688Z,17.50
2022-09-09T17:24:03.560Z,17.50
2022-09-09T17:29:09.316Z,17.60
2022-09-09T17:34:15.471Z,17.10
2022-09-09T17:39:21.279Z,16.90
2022-09-09T17:44:27.892Z,17.20
2022-09-09T17:49:34.072Z,17.20
2022-09-09T17:54:39.621Z,17.00
2022-09-09T17:59:44.939Z,16.90
2022-09-09T18:04:51.460Z,16.70
2022-09-09T18:09:57.164Z,16.50
2022-09-09T18:15:04.239Z,16.40
2022-09-09T18:20:11.774Z,16.30
2022-09-09T18:25:18.688Z,16.40
2022-09-09T18:30:24.298Z,16.60
2022-09-09T18:35:29.943Z,16.60
2022-09-09T18:40:37.093Z,16.50
2022-09-09T18:45:42.784Z,16.60
2022-09-09T18:50:48.442Z,16.30
2022-09-09T18:55:55.308Z,16.60
2022-09-09T19:01:02.297Z,16.40
2022-09-09T19:06:10.493Z,16.30
2022-09-09T19:11:21.296Z,16.30
2022-09-09T19:16:29.422Z,16.20
2022-09-09T19:21:39.654Z,16.40
2022-09-09T19:26:49.037Z,16.10
2022-09-09T19:37:05.458Z,16.30
2022-09-09T19:42:10.669Z,16.20
2022-09-09T19:47:16.136Z,16.00
2022-09-09T19:52:22.034Z,16.00
2022-09-09T19:57:31.099Z,16.00
2022-09-09T20:02:36.120Z,16.10
2022-09-09T20:07:42.921Z,16.10
2022-09-09T20:12:48.311Z,16.00
2022-09-09T20:17:53.206Z,16.10
2022-09-09T20:22:59.625Z,16.10
2022-09-09T20:28:05.347Z,16.30
2022-09-09T20:33:11.666Z,16.20
2022-09-09T20:38:17.741Z,16.30
2022-09-09T20:43:23.295Z,16.10
2022-09-09T20:48:28.184Z,16.00
2022-09-09T20:53:34.911Z,16.20
2022-09-09T20:58:40.788Z,16.00
2022-09-09T21:03:47.049Z,15.80
2022-09-09T21:08:52.348Z,15.70
2022-09-09T21:13:59.511Z,16.00
2022-09-09T21:19:05.105Z,15.70
2022-09-09T21:24:10.963Z,15.80
2022-09-09T21:29:16.101Z,15.80
2022-09-09T21:34:21.803Z,15.80
2022-09-09T21:39:27.330Z,16.00
2022-09-09T21:44:32.323Z,16.20
2022-09-09T21:49:37.421Z,16.00
2022-09-09T21:54:44.384Z,16.10
2022-09-09T21:59:49.793Z,15.60
2022-09-09T22:04:55.506Z,15.40
2022-09-09T22:10:01.803Z,15.40
2022-09-09T22:15:08.003Z,15.60
2022-09-09T22:20:13.913Z,15.60
2022-09-09T22:25:20.218Z,15.60
2022-09-09T22:30:25.168Z,15.40
2022-09-09T22:35:30.722Z,15.40
2022-09-09T22:40:40.026Z,15.30
2022-09-09T22:45:46.932Z,15.30
2022-09-09T22:50:51.840Z,15.20
2022-09-09T22:56:00.332Z,15.20
2022-09-09T23:01:17.127Z,15.20
2022-09-09T23:06:25.267Z,15.10
2022-09-09T23:11:32.801Z,15.10
2022-09-09T23:16:44.359Z,15.10
2022-09-09T23:21:50.753Z,15.10
2022-09-09T23:26:55.662Z,15.10
2022-09-09T23:32:00.511Z,15.10
2022-09-09T23:37:06.174Z,15.00
2022-09-09T23:42:12.535Z,14.80
2022-09-09T23:47:17.935Z,14.70
2022-09-09T23:52:24.817Z,14.70
2022-09-09T23:57:29.838Z,14.50
